Aviation Digital Data Service (ADDS)

Output produced by METARs form (0835 UTC 22 July 2018)
found at http://aviationweather.gov/adds/metars/
 
KJAN 220520Z 2206/2306 24003KT P6SM SCT150 
     FM221400 30011G18KT P6SM SKC 
     FM230100 VRB03KT P6SM SKC